createdAt,value
2023-03-27T00:01:29.553Z,5.90
2023-03-27T00:03:57.357Z,5.95
2023-03-27T00:06:27.160Z,5.97
2023-03-27T00:08:54.996Z,5.99
2023-03-27T00:11:24.846Z,6.11
2023-03-27T00:13:54.401Z,6.14
2023-03-27T00:16:26.786Z,6.14
2023-03-27T00:18:55.446Z,6.16
2023-03-27T00:21:23.465Z,6.09
2023-03-27T00:23:52.041Z,6.09
2023-03-27T00:26:21.432Z,6.06
2023-03-27T00:28:49.373Z,5.98
2023-03-27T00:31:17.924Z,5.98
2023-03-27T00:33:47.222Z,6.02
2023-03-27T00:36:15.186Z,6.00
2023-03-27T00:38:43.524Z,5.99
2023-03-27T00:41:11.394Z,5.98
2023-03-27T00:43:43.645Z,5.93
2023-03-27T00:46:31.424Z,5.94
2023-03-27T00:49:04.864Z,5.91
2023-03-27T00:51:33.413Z,5.89
2023-03-27T00:54:01.975Z,5.92
2023-03-27T00:56:30.678Z,5.91
2023-03-27T00:59:01.878Z,5.93
2023-03-27T01:01:32.158Z,5.79
2023-03-27T01:04:05.210Z,5.89
2023-03-27T01:06:33.593Z,5.91
2023-03-27T01:09:01.336Z,5.91
2023-03-27T01:11:42.815Z,5.91
2023-03-27T01:14:17.253Z,5.96
2023-03-27T01:16:56.885Z,5.91
2023-03-27T01:20:14.229Z,5.87
2023-03-27T01:22:59.505Z,5.88
2023-03-27T01:26:00.724Z,5.84
2023-03-27T01:28:39.849Z,5.77
2023-03-27T01:31:26.047Z,5.81
2023-03-27T01:34:15.739Z,5.81
2023-03-27T01:37:24.790Z,5.80
2023-03-27T01:40:04.286Z,5.86
2023-03-27T01:42:36.876Z,5.94
2023-03-27T01:45:09.260Z,5.94
2023-03-27T01:47:43.977Z,5.94
2023-03-27T01:50:19.796Z,5.92
2023-03-27T01:52:53.725Z,5.92
2023-03-27T01:55:27.406Z,5.86
2023-03-27T01:58:00.701Z,5.83
2023-03-27T02:00:50.926Z,5.78
2023-03-27T02:03:23.234Z,5.86
2023-03-27T02:05:56.325Z,5.91
2023-03-27T02:08:31.510Z,5.77
2023-03-27T02:11:10.823Z,5.90
2023-03-27T02:13:43.581Z,5.88
2023-03-27T02:16:17.527Z,5.83
2023-03-27T02:18:51.411Z,5.90
2023-03-27T02:21:19.419Z,5.90
2023-03-27T02:23:47.658Z,5.83
2023-03-27T02:26:16.983Z,5.83
2023-03-27T02:29:07.137Z,5.76
2023-03-27T02:31:51.332Z,5.86
2023-03-27T02:34:57.034Z,5.87
2023-03-27T02:37:33.182Z,5.83
2023-03-27T02:40:29.513Z,5.84
2023-03-27T02:43:22.109Z,5.87
2023-03-27T02:45:56.473Z,5.87
2023-03-27T02:48:29.939Z,5.76
2023-03-27T02:51:02.760Z,5.78
2023-03-27T02:53:36.509Z,5.82
2023-03-27T02:56:07.009Z,5.85
2023-03-27T02:58:45.116Z,5.86
2023-03-27T03:01:32.243Z,5.89
2023-03-27T03:04:25.618Z,5.84
2023-03-27T03:07:14.068Z,5.86
2023-03-27T03:09:44.461Z,5.92
2023-03-27T03:12:12.283Z,5.90
2023-03-27T03:14:46.646Z,5.96
2023-03-27T03:17:16.664Z,5.89
2023-03-27T03:19:46.272Z,5.91
2023-03-27T03:22:14.675Z,5.89
2023-03-27T03:24:43.648Z,5.80
2023-03-27T03:27:14.805Z,5.70
2023-03-27T03:29:59.659Z,5.77
2023-03-27T03:32:30.381Z,5.73
2023-03-27T03:35:01.454Z,5.66
2023-03-27T03:37:38.535Z,5.63
2023-03-27T03:40:11.857Z,5.61
2023-03-27T03:42:46.219Z,5.52
2023-03-27T03:45:15.976Z,5.55
2023-03-27T03:47:44.528Z,5.54
2023-03-27T03:50:13.472Z,5.50
2023-03-27T03:52:41.685Z,5.55
2023-03-27T03:55:11.733Z,5.49
2023-03-27T03:57:40.748Z,5.53
2023-03-27T04:00:19.678Z,5.48
2023-03-27T04:02:53.746Z,5.37
2023-03-27T04:05:22.633Z,5.38
2023-03-27T04:07:55.425Z,5.36
2023-03-27T04:10:36.900Z,5.41
2023-03-27T04:13:10.254Z,5.28
2023-03-27T04:15:47.217Z,5.19
2023-03-27T04:18:20.722Z,5.12
2023-03-27T04:20:50.271Z,5.10
2023-03-27T04:23:21.091Z,5.01
2023-03-27T04:25:49.273Z,4.97
2023-03-27T04:28:22.996Z,4.95
2023-03-27T04:31:06.304Z,4.83
2023-03-27T04:34:12.481Z,4.81
2023-03-27T04:37:04.098Z,4.81
2023-03-27T04:39:39.760Z,4.73
2023-03-27T04:42:07.662Z,4.79
2023-03-27T04:44:36.639Z,4.66
2023-03-27T04:47:08.771Z,4.63
2023-03-27T04:49:40.550Z,4.60
2023-03-27T04:52:19.007Z,4.54
2023-03-27T04:54:48.277Z,4.63
2023-03-27T04:57:19.092Z,4.52
2023-03-27T04:59:48.980Z,4.47
2023-03-27T05:02:36.702Z,4.43
2023-03-27T05:05:13.908Z,4.43
2023-03-27T05:07:46.086Z,4.24
2023-03-27T05:10:21.622Z,4.20
2023-03-27T05:12:51.833Z,4.16
2023-03-27T05:15:21.027Z,4.14
2023-03-27T05:17:54.293Z,3.95
2023-03-27T05:20:27.807Z,3.91
2023-03-27T05:22:56.428Z,3.81
2023-03-27T05:25:29.111Z,3.76
2023-03-27T05:27:58.299Z,3.75
2023-03-27T05:30:30.561Z,3.72
2023-03-27T05:33:18.415Z,3.63
2023-03-27T05:35:47.203Z,3.69
2023-03-27T05:38:16.005Z,3.64
2023-03-27T05:40:53.464Z,3.58
2023-03-27T05:43:22.634Z,3.55
2023-03-27T05:45:50.437Z,3.63
2023-03-27T05:48:19.714Z,3.57
2023-03-27T05:50:47.670Z,3.60
2023-03-27T05:53:20.885Z,3.50
2023-03-27T05:56:16.602Z,3.47
2023-03-27T05:58:53.448Z,3.43
2023-03-27T06:01:23.333Z,3.31
2023-03-27T06:03:55.988Z,3.16
2023-03-27T06:06:32.669Z,3.12
2023-03-27T06:09:00.587Z,3.03
2023-03-27T06:11:29.637Z,2.97
2023-03-27T06:13:58.810Z,2.94
2023-03-27T06:16:40.125Z,2.83
2023-03-27T06:19:27.910Z,2.73
2023-03-27T06:21:55.712Z,2.61
2023-03-27T06:24:24.108Z,2.64
2023-03-27T06:26:52.726Z,2.70
2023-03-27T06:29:21.446Z,2.72
2023-03-27T06:31:52.908Z,2.79
2023-03-27T06:34:28.514Z,2.88
2023-03-27T06:37:10.362Z,3.01
2023-03-27T06:39:42.818Z,3.18
2023-03-27T06:42:10.890Z,3.14
2023-03-27T06:44:51.621Z,3.10
2023-03-27T06:47:51.696Z,3.01
2023-03-27T06:50:43.781Z,3.03
2023-03-27T06:53:26.398Z,3.11
2023-03-27T06:55:54.964Z,3.08
2023-03-27T06:58:24.066Z,3.12
2023-03-27T07:00:52.146Z,3.06
2023-03-27T07:03:21.778Z,3.07
2023-03-27T07:06:19.260Z,2.91
2023-03-27T07:08:52.842Z,2.98
2023-03-27T07:11:20.653Z,3.00
2023-03-27T07:13:56.656Z,3.02
2023-03-27T07:16:28.762Z,3.11
2023-03-27T07:18:58.367Z,3.10
2023-03-27T07:21:31.002Z,3.18
2023-03-27T07:24:00.314Z,3.23
2023-03-27T07:26:34.151Z,3.23
2023-03-27T07:29:11.562Z,3.28
2023-03-27T07:31:55.857Z,3.26
2023-03-27T07:34:33.860Z,3.27
2023-03-27T07:37:29.072Z,3.26
2023-03-27T07:40:16.510Z,3.14
2023-03-27T07:42:54.617Z,3.16
2023-03-27T07:45:23.900Z,3.07
2023-03-27T07:47:57.056Z,3.09
2023-03-27T07:50:25.633Z,3.11
2023-03-27T07:52:55.398Z,3.19
2023-03-27T07:55:23.398Z,3.24
2023-03-27T07:58:03.273Z,3.21
2023-03-27T08:00:35.651Z,3.28
2023-03-27T08:03:16.699Z,3.32
2023-03-27T08:05:56.534Z,3.40
2023-03-27T08:08:28.309Z,3.46
2023-03-27T08:10:58.933Z,3.61
2023-03-27T08:13:30.964Z,3.70
2023-03-27T08:16:04.601Z,3.81
2023-03-27T08:18:32.438Z,3.72
2023-03-27T08:21:01.922Z,3.67
2023-03-27T08:23:33.563Z,3.72
2023-03-27T08:26:20.836Z,3.83
2023-03-27T08:28:56.908Z,3.85
2023-03-27T08:31:30.495Z,3.83
2023-03-27T08:34:03.156Z,3.96
2023-03-27T08:36:41.189Z,4.16
2023-03-27T08:39:11.153Z,4.13
2023-03-27T08:42:01.951Z,4.24
2023-03-27T08:44:36.216Z,4.45
2023-03-27T08:47:20.640Z,4.56
2023-03-27T08:49:59.194Z,4.68
2023-03-27T08:52:36.094Z,4.90
2023-03-27T08:55:15.341Z,5.06
2023-03-27T08:57:51.682Z,5.22
2023-03-27T09:00:27.255Z,5.34
2023-03-27T09:03:16.591Z,5.42
2023-03-27T09:05:50.175Z,5.43
2023-03-27T09:08:28.864Z,5.43
2023-03-27T09:11:04.180Z,5.38
2023-03-27T09:13:44.517Z,5.20
2023-03-27T09:16:19.285Z,5.19
2023-03-27T09:18:54.981Z,5.06
2023-03-27T09:21:35.513Z,5.28
2023-03-27T09:24:14.461Z,5.15
2023-03-27T09:27:15.226Z,5.03
2023-03-27T09:30:05.333Z,4.94
2023-03-27T09:32:57.977Z,4.66
2023-03-27T09:35:26.316Z,4.71
2023-03-27T09:37:58.443Z,4.64
2023-03-27T09:40:33.427Z,4.61
2023-03-27T09:43:09.395Z,4.68
2023-03-27T09:45:41.797Z,4.95
2023-03-27T09:48:15.538Z,5.00
2023-03-27T09:50:47.392Z,5.20
2023-03-27T09:53:35.333Z,5.39
2023-03-27T09:56:17.437Z,5.46
2023-03-27T09:58:53.152Z,5.57
2023-03-27T10:01:30.191Z,5.61
2023-03-27T10:04:15.486Z,5.70
2023-03-27T10:06:48.481Z,5.82
2023-03-27T10:09:27.555Z,6.10
2023-03-27T10:12:21.979Z,6.28
2023-03-27T10:14:53.124Z,6.20
2023-03-27T10:17:30.450Z,6.21
2023-03-27T10:20:13.241Z,5.89
2023-03-27T10:22:44.662Z,5.74
2023-03-27T10:25:19.122Z,6.12
2023-03-27T10:28:11.713Z,6.52
2023-03-27T10:31:04.580Z,6.97
2023-03-27T10:33:39.826Z,6.82
2023-03-27T10:36:22.663Z,6.59
2023-03-27T10:38:56.445Z,6.42
2023-03-27T10:41:42.059Z,6.50
2023-03-27T10:44:17.849Z,6.57
2023-03-27T10:46:53.789Z,6.33
2023-03-27T10:49:31.605Z,6.16
2023-03-27T10:52:10.135Z,5.88
2023-03-27T10:55:08.901Z,5.86
2023-03-27T10:57:38.123Z,6.17
2023-03-27T11:00:18.346Z,6.51
2023-03-27T11:03:01.106Z,6.45
2023-03-27T11:05:37.179Z,6.79
2023-03-27T11:08:17.436Z,7.22
2023-03-27T11:10:48.217Z,7.66
2023-03-27T11:13:28.313Z,8.42
2023-03-27T11:16:11.792Z,9.21
2023-03-27T11:19:23.429Z,8.77
2023-03-27T11:22:25.090Z,7.51
2023-03-27T11:24:58.417Z,7.12
2023-03-27T11:27:32.328Z,7.04
2023-03-27T11:30:18.470Z,7.86
2023-03-27T11:33:05.592Z,8.93
2023-03-27T11:35:39.142Z,9.12
2023-03-27T11:38:33.960Z,8.64
2023-03-27T11:41:03.849Z,8.67
2023-03-27T11:43:32.885Z,9.29
2023-03-27T11:46:16.606Z,9.93
2023-03-27T11:49:02.236Z,9.10
2023-03-27T11:51:43.274Z,8.35
2023-03-27T11:54:23.209Z,8.49
2023-03-27T11:56:57.935Z,9.22
2023-03-27T12:00:07.037Z,8.85
2023-03-27T12:03:03.523Z,8.63
2023-03-27T12:05:44.039Z,8.62
2023-03-27T12:08:30.887Z,8.09
2023-03-27T12:11:05.019Z,7.96
2023-03-27T12:14:00.938Z,7.44
2023-03-27T12:17:00.129Z,6.95
2023-03-27T12:20:01.535Z,6.98
2023-03-27T12:22:39.894Z,7.20
2023-03-27T12:25:48.314Z,8.31
2023-03-27T12:28:55.609Z,8.72
2023-03-27T12:31:53.629Z,8.54
2023-03-27T12:34:41.397Z,8.09
2023-03-27T12:37:12.828Z,7.77
2023-03-27T12:39:49.185Z,7.52
2023-03-27T12:42:44.233Z,7.31
2023-03-27T12:45:19.454Z,7.01
2023-03-27T12:48:16.586Z,7.36
2023-03-27T12:50:54.801Z,7.36
2023-03-27T12:53:54.801Z,7.05
2023-03-27T12:56:32.988Z,7.02
2023-03-27T12:59:15.805Z,6.82
2023-03-27T13:02:02.488Z,7.03
2023-03-27T13:05:27.390Z,7.22
2023-03-27T13:08:27.473Z,7.68
2023-03-27T13:11:15.462Z,8.62
2023-03-27T13:14:09.983Z,9.44
2023-03-27T13:17:02.214Z,9.45
2023-03-27T13:19:43.263Z,9.05
2023-03-27T13:22:37.151Z,8.61
2023-03-27T13:25:24.760Z,8.54
2023-03-27T13:28:15.357Z,8.48
2023-03-27T13:30:56.779Z,9.72
2023-03-27T13:34:08.397Z,10.34
2023-03-27T13:36:36.472Z,10.88
2023-03-27T13:39:28.032Z,10.97
2023-03-27T13:42:15.172Z,10.03
2023-03-27T13:44:59.894Z,9.05
2023-03-27T13:48:04.611Z,7.72
2023-03-27T13:50:57.749Z,6.76
2023-03-27T13:53:39.196Z,6.06
2023-03-27T13:56:33.492Z,6.47
2023-03-27T13:59:44.646Z,7.27
2023-03-27T14:02:52.598Z,7.81
2023-03-27T14:05:56.945Z,8.56
2023-03-27T14:08:41.464Z,8.92
2023-03-27T14:11:42.411Z,8.80
2023-03-27T14:14:46.257Z,9.01
2023-03-27T14:17:43.026Z,9.22
2023-03-27T14:20:20.175Z,8.82
2023-03-27T14:22:56.822Z,8.36
2023-03-27T14:25:35.130Z,8.08
2023-03-27T14:28:32.587Z,7.79
2023-03-27T14:31:08.488Z,7.57
2023-03-27T14:33:58.932Z,6.90
2023-03-27T14:36:30.762Z,6.88
2023-03-27T14:39:08.325Z,6.96
2023-03-27T14:41:46.739Z,6.95
2023-03-27T14:44:15.812Z,7.26
2023-03-27T14:46:48.028Z,7.24
2023-03-27T14:49:19.336Z,7.43
2023-03-27T14:51:53.574Z,7.63
2023-03-27T14:54:55.209Z,7.86
2023-03-27T14:57:28.021Z,7.92
2023-03-27T14:59:58.735Z,8.02
2023-03-27T15:02:31.751Z,7.95
2023-03-27T15:05:08.580Z,7.82
2023-03-27T15:07:37.752Z,7.78
2023-03-27T15:10:24.113Z,7.91
2023-03-27T15:13:11.923Z,7.92
2023-03-27T15:15:50.276Z,7.51
2023-03-27T15:18:25.838Z,7.35
2023-03-27T15:20:56.632Z,7.38
2023-03-27T15:23:29.327Z,7.39
2023-03-27T15:26:02.760Z,7.19
2023-03-27T15:28:34.203Z,6.93
2023-03-27T15:31:04.454Z,6.90
2023-03-27T15:33:37.213Z,6.86
2023-03-27T15:36:09.877Z,6.60
2023-03-27T15:38:38.789Z,6.42
2023-03-27T15:41:42.153Z,6.47
2023-03-27T15:44:12.806Z,6.35
2023-03-27T15:46:53.155Z,6.16
2023-03-27T15:49:24.087Z,6.04
2023-03-27T15:51:51.922Z,5.79
2023-03-27T15:54:37.590Z,5.73
2023-03-27T15:57:11.557Z,5.65
2023-03-27T15:59:51.843Z,5.58
2023-03-27T16:02:26.370Z,5.35
2023-03-27T16:04:58.688Z,5.29
2023-03-27T16:07:30.321Z,5.32
2023-03-27T16:10:02.404Z,5.35
2023-03-27T16:12:48.981Z,5.27
2023-03-27T16:15:30.207Z,5.19
2023-03-27T16:17:59.164Z,5.14
2023-03-27T16:20:48.966Z,5.12
2023-03-27T16:23:17.729Z,5.23
2023-03-27T16:25:45.533Z,5.19
2023-03-27T16:28:17.576Z,5.23
2023-03-27T16:30:45.789Z,5.22
2023-03-27T16:33:16.663Z,5.26
2023-03-27T16:35:45.260Z,5.35
2023-03-27T16:38:15.004Z,5.35
2023-03-27T16:40:43.674Z,5.42
2023-03-27T16:43:11.623Z,5.43
2023-03-27T16:45:41.015Z,5.44
2023-03-27T16:48:08.912Z,5.41
2023-03-27T16:50:41.034Z,5.43
2023-03-27T16:53:08.824Z,5.50
2023-03-27T16:55:36.578Z,5.47
2023-03-27T16:58:07.474Z,5.42
2023-03-27T17:00:35.179Z,5.35
2023-03-27T17:03:06.776Z,5.32
2023-03-27T17:05:34.796Z,5.38
2023-03-27T17:08:03.659Z,5.34
2023-03-27T17:10:32.454Z,5.38
2023-03-27T17:13:01.340Z,5.36
2023-03-27T17:15:29.143Z,5.30
2023-03-27T17:17:57.164Z,5.29
2023-03-27T17:20:27.089Z,5.24
2023-03-27T17:22:54.941Z,5.27
2023-03-27T17:25:23.378Z,5.21
2023-03-27T17:27:51.410Z,5.09
2023-03-27T17:30:30.513Z,5.04
2023-03-27T17:33:03.259Z,5.00
2023-03-27T17:35:32.750Z,4.94
2023-03-27T17:38:00.567Z,4.85
2023-03-27T17:40:28.429Z,4.88
2023-03-27T17:42:56.167Z,4.84
2023-03-27T17:45:24.628Z,4.82
2023-03-27T17:47:55.758Z,4.28
2023-03-27T17:50:23.692Z,3.89
2023-03-27T17:52:52.814Z,3.69
2023-03-27T17:55:20.578Z,3.35
2023-03-27T17:57:55.655Z,3.01
2023-03-27T18:00:30.015Z,2.88
2023-03-27T18:03:00.066Z,2.77
2023-03-27T18:05:29.314Z,2.73
2023-03-27T18:07:58.584Z,2.58
2023-03-27T18:10:26.354Z,2.48
2023-03-27T18:13:01.315Z,2.50
2023-03-27T18:15:29.158Z,2.44
2023-03-27T18:17:58.815Z,2.27
2023-03-27T18:20:26.718Z,2.24
2023-03-27T18:22:58.456Z,2.15
2023-03-27T18:25:28.037Z,2.10
2023-03-27T18:27:55.841Z,2.05
2023-03-27T18:30:25.657Z,2.01
2023-03-27T18:32:57.764Z,1.96
2023-03-27T18:35:25.577Z,1.89
2023-03-27T18:38:04.940Z,1.81
2023-03-27T18:40:34.412Z,1.77
2023-03-27T18:43:02.390Z,1.69
2023-03-27T18:45:30.981Z,1.64
2023-03-27T18:47:58.803Z,1.60
2023-03-27T18:50:26.569Z,1.57
2023-03-27T18:52:54.907Z,1.50
2023-03-27T18:55:22.681Z,1.43
2023-03-27T18:57:51.770Z,1.34
2023-03-27T19:00:23.222Z,1.31
2023-03-27T19:03:25.836Z,1.25
2023-03-27T19:05:54.539Z,1.18
2023-03-27T19:08:22.971Z,1.17
2023-03-27T19:10:50.762Z,1.04
2023-03-27T19:13:23.404Z,1.08
2023-03-27T19:16:15.826Z,0.98
2023-03-27T19:19:03.967Z,0.91
2023-03-27T19:21:40.542Z,0.88
2023-03-27T19:24:17.420Z,0.86
2023-03-27T19:26:46.696Z,0.87
2023-03-27T19:29:15.961Z,0.87
2023-03-27T19:31:43.649Z,0.87
2023-03-27T19:34:11.464Z,0.90
2023-03-27T19:36:39.301Z,0.94
2023-03-27T19:39:07.172Z,0.96
2023-03-27T19:41:34.944Z,0.92
2023-03-27T19:44:03.449Z,0.83
2023-03-27T19:46:32.622Z,0.85
2023-03-27T19:49:00.927Z,0.81
2023-03-27T19:51:54.742Z,0.81
2023-03-27T19:54:22.486Z,0.86
2023-03-27T19:56:50.596Z,0.81
2023-03-27T19:59:29.851Z,0.81
2023-03-27T20:02:00.292Z,0.83
2023-03-27T20:04:28.171Z,0.88
2023-03-27T20:07:01.666Z,0.84
2023-03-27T20:09:29.451Z,0.84
2023-03-27T20:11:57.237Z,0.82
2023-03-27T20:14:25.420Z,0.84
2023-03-27T20:16:53.150Z,0.95
2023-03-27T20:19:28.942Z,1.01
2023-03-27T20:21:58.544Z,1.08
2023-03-27T20:24:26.376Z,1.17
2023-03-27T20:26:58.753Z,1.28
2023-03-27T20:29:27.608Z,1.34
2023-03-27T20:31:55.434Z,1.37
2023-03-27T20:34:25.005Z,1.41
2023-03-27T20:36:54.845Z,1.47
2023-03-27T20:39:47.052Z,1.46
2023-03-27T20:42:16.536Z,1.49
2023-03-27T20:44:45.141Z,1.46
2023-03-27T20:47:15.017Z,1.40
2023-03-27T20:49:47.801Z,1.45
2023-03-27T20:52:17.916Z,1.45
2023-03-27T20:54:45.763Z,1.42
2023-03-27T20:57:16.103Z,1.51
2023-03-27T20:59:46.164Z,1.55
2023-03-27T21:02:17.937Z,1.63
2023-03-27T21:04:47.486Z,1.64
2023-03-27T21:07:15.762Z,1.75
2023-03-27T21:09:45.802Z,1.76
2023-03-27T21:12:13.770Z,1.85
2023-03-27T21:14:41.600Z,1.85
2023-03-27T21:17:12.355Z,1.88
2023-03-27T21:19:40.146Z,1.93
2023-03-27T21:22:09.522Z,1.87
2023-03-27T21:24:37.374Z,1.88
2023-03-27T21:27:05.466Z,1.92
2023-03-27T21:29:33.201Z,1.96
2023-03-27T21:32:01.127Z,2.09
2023-03-27T21:34:29.214Z,2.09
2023-03-27T21:36:58.115Z,2.12
2023-03-27T21:39:27.398Z,2.05
2023-03-27T21:41:55.320Z,2.07
2023-03-27T21:44:23.122Z,2.07
2023-03-27T21:46:51.025Z,2.00
2023-03-27T21:49:18.866Z,1.92
2023-03-27T21:51:46.617Z,2.01
2023-03-27T21:54:14.407Z,1.99
2023-03-27T21:56:43.559Z,2.02
2023-03-27T21:59:11.341Z,2.05
2023-03-27T22:01:39.119Z,2.04
2023-03-27T22:04:06.899Z,2.04
2023-03-27T22:06:34.673Z,1.91
2023-03-27T22:09:02.428Z,1.80
2023-03-27T22:11:30.272Z,1.90
2023-03-27T22:13:59.838Z,1.82
2023-03-27T22:16:27.751Z,1.79
2023-03-27T22:18:55.711Z,1.76
2023-03-27T22:21:25.784Z,1.66
2023-03-27T22:23:55.252Z,1.56
2023-03-27T22:26:25.292Z,1.47
2023-03-27T22:28:53.200Z,1.40
2023-03-27T22:31:23.103Z,1.38
2023-03-27T22:33:51.574Z,1.31
2023-03-27T22:36:20.076Z,1.24
2023-03-27T22:38:47.862Z,1.17
2023-03-27T22:41:15.831Z,1.11
2023-03-27T22:43:43.628Z,1.12
2023-03-27T22:46:13.624Z,1.18
2023-03-27T22:48:43.236Z,1.13
2023-03-27T22:51:12.332Z,1.16
2023-03-27T22:53:40.896Z,1.17
2023-03-27T22:56:09.926Z,1.24
2023-03-27T22:58:38.052Z,1.34
2023-03-27T23:01:07.620Z,1.47
2023-03-27T23:03:35.590Z,1.56
2023-03-27T23:06:05.480Z,1.58
2023-03-27T23:08:33.435Z,1.59
2023-03-27T23:11:03.321Z,1.65
2023-03-27T23:13:32.674Z,1.71
2023-03-27T23:16:01.090Z,1.75
2023-03-27T23:18:29.173Z,1.73
2023-03-27T23:20:57.579Z,1.77
2023-03-27T23:23:27.435Z,1.72
2023-03-27T23:25:55.307Z,1.69
2023-03-27T23:28:23.063Z,1.58
2023-03-27T23:30:54.969Z,1.50
2023-03-27T23:33:24.859Z,1.47
2023-03-27T23:35:53.426Z,1.28
2023-03-27T23:38:21.381Z,1.16
2023-03-27T23:40:57.592Z,1.14
2023-03-27T23:43:26.628Z,1.08
2023-03-27T23:45:55.518Z,1.20
2023-03-27T23:48:24.032Z,1.22
2023-03-27T23:50:53.125Z,1.27
2023-03-27T23:53:21.170Z,1.26
2023-03-27T23:55:49.389Z,1.23
2023-03-27T23:58:18.528Z,1.22
